Detall de PIREP

Printer-friendly versionPDF version

[2014/04/20 10:00:00]
Flight IATA:CT1004
Pilot Number:012
Company ICAO:CAT
Aircraft Type:A320/E
PAX:103
Departing Airport: LIEA
Destination Airport: LMML
Alternate Airport:LICJ
Online: VATSIM
Route:SODIO UM732 GZO
Flight Level:F330
No Slew and time accel
No pause
Crash detect
Detect pilot in Cockpit between each 30 and 45 minutes
10:00 Zero fuel Weight: 120294 Lbs, Fuel Weight: 12283 Lbs
10:00 VATSIM:LIEA 200950Z 21005KT 140V260 CAVOK 20/01 Q1006
10:00 VATSIM:LMML 200945Z 23013KT 190V250 CAVOK 23/10 Q1008 NOSIG
10:01 EASTER CHARTER
10:01 Parking Brakes off
10:06 Take-off
10:06 Take off Weight: 131906 Lbs
10:06 Wind: 358º @ 001 Knots Heading: 204º
10:06 POS N40º 37´ 42´´ E008º 17´ 19´´
10:06 Gear Up: 167 Knots
10:06 Flaps:3 at 167 Knots
10:06 Flaps:2 at 172 Knots
10:06 Flaps:0 at 180 Knots
10:20 TOC
10:20 Fuel Weight: 8065 Lb
10:21 Wind:264º@082 Knots Heading: 156º Ground Speed: 489 Knots Altitude 32713 ft
10:36 Wind:274º@073 Knots Heading: 134º Ground Speed: 519 Knots Altitude 32785 ft
10:46 TOD
10:46 Fuel Weight: 5636 Lb
10:51 Wind:288º@056 Knots Heading: 133º Ground Speed: 420 Knots Altitude 19068 ft
11:06 Wind:217º@011 Knots Heading: 092º Ground Speed: 254 Knots Altitude 2335 ft
11:07 Flaps:1 at 193 Knots
11:07 Flaps:3 at 191 Knots
11:07 Gear Down: 175 Knots
11:08 Flaps:4 at 162 Knots
11:08 Flaps:5 at 142 Knots
11:10 TouchDown:Rate -121 ft/min Speed: 132 Knots
11:10 VATSIM:LMML 201045Z AUTO 21013KT 180V240 CAVOK 24/10 Q1008
11:10 Land
11:10 Wind:222º@011 Knots
11:10 Heading: 318º
11:10 Flight Duration: 01:04
11:10 Landing Weight: 124242 Lbs
11:10 POS N35º 50´ 48´´ E014º 29´ 33´´
11:12 Parking brakes on
11:12 Block to Block Duration: 01:11
11:12 Final Fuel: 3754 Lbls
11:12 Spent Fuel: 8529 Lbls
11:12 Flight Length: 442 NM
11:12 TOD Land Length: 127 NM

Exportar CSV

Powered by Drupal - Modified by Danger4k